BCS942 LIMC-LYBE
Flight info
| Callsign | BCS942 |
|---|---|
| Flight time | 1h 25m |
| Altitude | 37000 |
| Route | OSKOR DCT NOBMI DCT ROSKA DCT PEVAL DCT RUDIK DCT SOMUN DCT ENUPU |
| Aircraft | B738/M-SDE2E3FGHIRWXY/LB1 |
Departure
| Time | 2026-02-19 12:08 |
|---|---|
| Airport | Milan Malpensa International Airport (LIMC) |
Arrival
| Time | 2026-02-19 13:34 |
|---|---|
| Airport | Belgrade Nikola Tesla Airport (LYBE) |
| Time | Latitude | Longitude | Altitude | Speed | Heading |
|---|---|---|---|---|---|
| 2026-02-19 11:32 | 45.60687 | 8.72097 | 752 ft | 0 kts | 259° |
| 2026-02-19 11:56 | 45.60690 | 8.72115 | 749 ft | 3 kts | 259° |
| 2026-02-19 11:56 | 45.60693 | 8.72144 | 750 ft | 3 kts | 261° |
| 2026-02-19 11:57 | 45.60697 | 8.72172 | 751 ft | 3 kts | 261° |
| 2026-02-19 11:57 | 45.60700 | 8.72195 | 748 ft | 3 kts | 263° |
| 2026-02-19 11:57 | 45.60699 | 8.72221 | 748 ft | 3 kts | 302° |
| 2026-02-19 11:57 | 45.60686 | 8.72237 | 751 ft | 3 kts | 344° |
| 2026-02-19 11:58 | 45.60672 | 8.72242 | 749 ft | 1 kts | 349° |
| 2026-02-19 11:58 | 45.60668 | 8.72243 | 749 ft | 0 kts | 349° |
| 2026-02-19 12:01 | 45.60669 | 8.72243 | 749 ft | 0 kts | 349° |
| 2026-02-19 12:02 | 45.60675 | 8.72243 | 749 ft | 3 kts | 359° |
| 2026-02-19 12:02 | 45.60721 | 8.72236 | 750 ft | 10 kts | 348° |
| 2026-02-19 12:02 | 45.60803 | 8.72212 | 750 ft | 14 kts | 349° |
| 2026-02-19 12:02 | 45.60896 | 8.72186 | 751 ft | 13 kts | 348° |
| 2026-02-19 12:03 | 45.60982 | 8.72161 | 748 ft | 13 kts | 348° |
| 2026-02-19 12:03 | 45.61068 | 8.72138 | 750 ft | 12 kts | 349° |
| 2026-02-19 12:03 | 45.61134 | 8.72192 | 751 ft | 12 kts | 69° |
| 2026-02-19 12:03 | 45.61136 | 8.72308 | 752 ft | 11 kts | 84° |
| 2026-02-19 12:04 | 45.61149 | 8.72416 | 749 ft | 11 kts | 80° |
| 2026-02-19 12:04 | 45.61101 | 8.72569 | 750 ft | 9 kts | 164° |
| 2026-02-19 12:04 | 45.61078 | 8.72600 | 749 ft | 1 kts | 112° |
| 2026-02-19 12:05 | 45.61078 | 8.72601 | 749 ft | 0 kts | 111° |
| 2026-02-19 12:05 | 45.61078 | 8.72608 | 750 ft | 2 kts | 101° |
| 2026-02-19 12:05 | 45.61078 | 8.72661 | 750 ft | 9 kts | 82° |
| 2026-02-19 12:06 | 45.61090 | 8.72770 | 745 ft | 9 kts | 69° |
| 2026-02-19 12:06 | 45.61135 | 8.72807 | 744 ft | 9 kts | 3° |
| 2026-02-19 12:06 | 45.61157 | 8.72802 | 745 ft | 0 kts | 348° |
| 2026-02-19 12:07 | 45.61255 | 8.72776 | 744 ft | 52 kts | 349° |
| 2026-02-19 12:08 | 45.61861 | 8.72611 | 748 ft | 119 kts | 349° |
| 2026-02-19 12:08 | 45.64063 | 8.72045 | 1173 ft | 177 kts | 348° |
| 2026-02-19 12:08 | 45.65248 | 8.71681 | 2054 ft | 171 kts | 337° |
| 2026-02-19 12:09 | 45.66251 | 8.70815 | 2750 ft | 174 kts | 323° |
| 2026-02-19 12:09 | 45.67296 | 8.69706 | 3054 ft | 201 kts | 323° |
| 2026-02-19 12:09 | 45.68459 | 8.68489 | 3432 ft | 214 kts | 322° |
| 2026-02-19 12:09 | 45.69669 | 8.67133 | 3886 ft | 225 kts | 321° |
| 2026-02-19 12:10 | 45.70864 | 8.65684 | 4516 ft | 228 kts | 319° |
| 2026-02-19 12:10 | 45.72113 | 8.64165 | 4988 ft | 243 kts | 320° |
| 2026-02-19 12:10 | 45.73260 | 8.62399 | 5840 ft | 238 kts | 298° |
| 2026-02-19 12:10 | 45.73711 | 8.60161 | 6673 ft | 240 kts | 272° |
| 2026-02-19 12:11 | 45.73366 | 8.57813 | 7295 ft | 247 kts | 243° |
| 2026-02-19 12:11 | 45.72316 | 8.55878 | 8096 ft | 248 kts | 227° |
| 2026-02-19 12:11 | 45.71073 | 8.54144 | 8868 ft | 249 kts | 227° |
| 2026-02-19 12:11 | 45.69874 | 8.52383 | 9613 ft | 251 kts | 229° |
| 2026-02-19 12:12 | 45.68680 | 8.50502 | 10310 ft | 253 kts | 232° |
| 2026-02-19 12:12 | 45.66372 | 8.46666 | 11746 ft | 256 kts | 234° |
| 2026-02-19 12:12 | 45.65235 | 8.44743 | 12475 ft | 258 kts | 236° |
| 2026-02-19 12:13 | 45.64030 | 8.42821 | 13180 ft | 266 kts | 226° |
| 2026-02-19 12:13 | 45.62294 | 8.41655 | 13815 ft | 286 kts | 193° |
| 2026-02-19 12:13 | 45.60227 | 8.41897 | 14084 ft | 316 kts | 164° |
| 2026-02-19 12:13 | 45.58178 | 8.43294 | 14261 ft | 341 kts | 142° |
| 2026-02-19 12:14 | 45.56659 | 8.45987 | 14454 ft | 361 kts | 112° |
| 2026-02-19 12:14 | 45.56120 | 8.49527 | 14640 ft | 373 kts | 84° |
| 2026-02-19 12:14 | 45.56592 | 8.53122 | 15098 ft | 377 kts | 72° |
| 2026-02-19 12:14 | 45.57247 | 8.56829 | 15783 ft | 381 kts | 72° |
| 2026-02-19 12:15 | 45.57880 | 8.60457 | 16546 ft | 383 kts | 73° |
| 2026-02-19 12:15 | 45.58508 | 8.64148 | 17333 ft | 384 kts | 73° |
| 2026-02-19 12:15 | 45.59127 | 8.67875 | 18047 ft | 387 kts | 74° |
| 2026-02-19 12:15 | 45.59740 | 8.71633 | 18635 ft | 391 kts | 75° |
| 2026-02-19 12:16 | 45.60353 | 8.75436 | 19221 ft | 394 kts | 75° |
| 2026-02-19 12:16 | 45.61581 | 8.83125 | 20398 ft | 400 kts | 75° |
| 2026-02-19 12:16 | 45.62200 | 8.87012 | 20965 ft | 403 kts | 76° |
| 2026-02-19 12:17 | 45.62822 | 8.90934 | 21523 ft | 406 kts | 76° |
| 2026-02-19 12:17 | 45.63450 | 8.94886 | 22081 ft | 410 kts | 76° |
| 2026-02-19 12:17 | 45.64080 | 8.98873 | 22595 ft | 413 kts | 76° |
| 2026-02-19 12:17 | 45.64670 | 9.02903 | 23121 ft | 417 kts | 82° |
| 2026-02-19 12:18 | 45.64838 | 9.07057 | 23603 ft | 419 kts | 89° |
| 2026-02-19 12:18 | 45.64827 | 9.11240 | 24017 ft | 423 kts | 90° |
| 2026-02-19 12:18 | 45.64784 | 9.15455 | 24408 ft | 426 kts | 90° |
| 2026-02-19 12:18 | 45.64750 | 9.19695 | 24891 ft | 427 kts | 90° |
| 2026-02-19 12:19 | 45.64735 | 9.23955 | 25319 ft | 430 kts | 90° |
| 2026-02-19 12:19 | 45.64737 | 9.28232 | 25730 ft | 432 kts | 90° |
| 2026-02-19 12:19 | 45.64749 | 9.32534 | 26146 ft | 434 kts | 90° |
| 2026-02-19 12:19 | 45.64766 | 9.36863 | 26511 ft | 437 kts | 90° |
| 2026-02-19 12:20 | 45.64782 | 9.41208 | 27154 ft | 438 kts | 90° |
| 2026-02-19 12:20 | 45.64810 | 9.50021 | 27734 ft | 447 kts | 91° |
| 2026-02-19 12:20 | 45.64821 | 9.54480 | 28078 ft | 450 kts | 91° |
| 2026-02-19 12:21 | 45.64829 | 9.58959 | 28215 ft | 452 kts | 91° |
| 2026-02-19 12:21 | 45.64836 | 9.63468 | 28551 ft | 455 kts | 91° |
| 2026-02-19 12:21 | 45.64847 | 9.67995 | 28871 ft | 457 kts | 91° |
| 2026-02-19 12:21 | 45.64860 | 9.72498 | 29162 ft | 460 kts | 91° |
| 2026-02-19 12:22 | 45.64872 | 9.77146 | 29453 ft | 463 kts | 91° |
| 2026-02-19 12:22 | 45.64882 | 9.81696 | 29715 ft | 465 kts | 91° |
| 2026-02-19 12:22 | 45.64890 | 9.86341 | 29859 ft | 470 kts | 92° |
| 2026-02-19 12:22 | 45.64896 | 9.91099 | 30027 ft | 474 kts | 92° |
| 2026-02-19 12:23 | 45.64900 | 9.95825 | 30331 ft | 475 kts | 92° |
| 2026-02-19 12:23 | 45.64903 | 10.00534 | 30686 ft | 474 kts | 92° |
| 2026-02-19 12:23 | 45.64904 | 10.05237 | 30987 ft | 474 kts | 92° |
| 2026-02-19 12:23 | 45.64902 | 10.09953 | 31248 ft | 476 kts | 92° |
| 2026-02-19 12:24 | 45.64897 | 10.14691 | 31530 ft | 477 kts | 93° |
| 2026-02-19 12:24 | 45.64881 | 10.24163 | 32094 ft | 478 kts | 94° |
| 2026-02-19 12:24 | 45.64870 | 10.28921 | 32311 ft | 480 kts | 94° |
| 2026-02-19 12:25 | 45.64856 | 10.33639 | 32602 ft | 481 kts | 94° |
| 2026-02-19 12:25 | 45.64845 | 10.38475 | 32914 ft | 481 kts | 94° |
| 2026-02-19 12:25 | 45.64830 | 10.43190 | 33206 ft | 481 kts | 94° |
| 2026-02-19 12:25 | 45.64812 | 10.47968 | 33474 ft | 481 kts | 95° |
| 2026-02-19 12:26 | 45.64636 | 10.52729 | 33694 ft | 478 kts | 102° |
| 2026-02-19 12:26 | 45.64088 | 10.57393 | 33922 ft | 476 kts | 105° |
| 2026-02-19 12:26 | 45.63450 | 10.62042 | 34096 ft | 477 kts | 107° |
| 2026-02-19 12:26 | 45.62783 | 10.66694 | 34247 ft | 479 kts | 107° |
| 2026-02-19 12:27 | 45.62116 | 10.71366 | 34439 ft | 481 kts | 107° |
| 2026-02-19 12:27 | 45.61460 | 10.76041 | 34686 ft | 481 kts | 106° |
| 2026-02-19 12:27 | 45.60816 | 10.80733 | 34912 ft | 482 kts | 106° |
| 2026-02-19 12:27 | 45.60178 | 10.85443 | 35103 ft | 483 kts | 105° |
| 2026-02-19 12:28 | 45.59545 | 10.90145 | 35287 ft | 484 kts | 105° |
| 2026-02-19 12:28 | 45.58274 | 10.99602 | 35653 ft | 486 kts | 106° |
| 2026-02-19 12:28 | 45.57633 | 11.04348 | 35750 ft | 489 kts | 106° |
| 2026-02-19 12:29 | 45.56984 | 11.09126 | 35891 ft | 491 kts | 106° |
| 2026-02-19 12:29 | 45.56333 | 11.13904 | 36128 ft | 490 kts | 106° |
| 2026-02-19 12:29 | 45.55681 | 11.18677 | 36349 ft | 490 kts | 106° |
| 2026-02-19 12:29 | 45.55027 | 11.23444 | 36488 ft | 491 kts | 106° |
| 2026-02-19 12:30 | 45.53700 | 11.33051 | 36580 ft | 496 kts | 106° |
| 2026-02-19 12:30 | 45.52367 | 11.42666 | 36570 ft | 492 kts | 106° |
| 2026-02-19 12:31 | 45.51036 | 11.52206 | 36569 ft | 489 kts | 106° |
| 2026-02-19 12:31 | 45.49704 | 11.61675 | 36576 ft | 486 kts | 106° |
| 2026-02-19 12:32 | 45.47698 | 11.75820 | 36557 ft | 485 kts | 107° |
| 2026-02-19 12:33 | 45.46353 | 11.85225 | 36578 ft | 486 kts | 107° |
| 2026-02-19 12:33 | 45.44993 | 11.94676 | 36588 ft | 488 kts | 107° |
| 2026-02-19 12:34 | 45.43619 | 12.04167 | 36586 ft | 491 kts | 107° |
| 2026-02-19 12:34 | 45.42232 | 12.13698 | 36554 ft | 494 kts | 107° |
| 2026-02-19 12:35 | 45.40828 | 12.23282 | 36563 ft | 496 kts | 107° |
| 2026-02-19 12:35 | 45.39416 | 12.32867 | 36561 ft | 498 kts | 107° |
| 2026-02-19 12:36 | 45.37984 | 12.42527 | 36560 ft | 500 kts | 107° |
| 2026-02-19 12:36 | 45.35816 | 12.57043 | 36571 ft | 501 kts | 107° |
| 2026-02-19 12:37 | 45.34353 | 12.66750 | 36567 ft | 503 kts | 107° |
| 2026-02-19 12:37 | 45.32885 | 12.76457 | 36578 ft | 502 kts | 107° |
| 2026-02-19 12:38 | 45.31472 | 12.86152 | 36539 ft | 502 kts | 102° |
| 2026-02-19 12:38 | 45.31211 | 12.96104 | 36587 ft | 505 kts | 93° |
| 2026-02-19 12:39 | 45.31244 | 13.06071 | 36598 ft | 505 kts | 94° |
| 2026-02-19 12:39 | 45.31186 | 13.16045 | 36595 ft | 505 kts | 95° |
| 2026-02-19 12:40 | 45.30726 | 13.30933 | 36608 ft | 499 kts | 101° |
| 2026-02-19 12:41 | 45.29802 | 13.40679 | 36619 ft | 497 kts | 103° |
| 2026-02-19 12:41 | 45.28827 | 13.50388 | 36619 ft | 497 kts | 103° |
| 2026-02-19 12:42 | 45.27903 | 13.60055 | 36622 ft | 498 kts | 102° |
| 2026-02-19 12:42 | 45.26998 | 13.69800 | 36625 ft | 500 kts | 102° |
| 2026-02-19 12:43 | 45.26086 | 13.79613 | 36631 ft | 502 kts | 102° |
| 2026-02-19 12:43 | 45.25161 | 13.89461 | 36658 ft | 504 kts | 102° |
| 2026-02-19 12:44 | 45.24222 | 13.99335 | 36664 ft | 506 kts | 102° |
| 2026-02-19 12:44 | 45.22795 | 14.14174 | 36675 ft | 506 kts | 103° |
| 2026-02-19 12:45 | 45.21830 | 14.24077 | 36664 ft | 507 kts | 103° |
| 2026-02-19 12:45 | 45.20858 | 14.33971 | 36671 ft | 506 kts | 103° |
| 2026-02-19 12:46 | 45.19879 | 14.43849 | 36654 ft | 505 kts | 103° |
| 2026-02-19 12:46 | 45.18894 | 14.53695 | 36658 ft | 504 kts | 103° |
| 2026-02-19 12:47 | 45.17902 | 14.63521 | 36672 ft | 503 kts | 103° |
| 2026-02-19 12:47 | 45.16901 | 14.73343 | 36676 ft | 503 kts | 103° |
| 2026-02-19 12:48 | 45.15391 | 14.88007 | 36664 ft | 504 kts | 103° |
| 2026-02-19 12:49 | 45.14367 | 14.97845 | 36667 ft | 506 kts | 103° |
| 2026-02-19 12:49 | 45.13331 | 15.07704 | 36653 ft | 507 kts | 103° |
| 2026-02-19 12:50 | 45.12287 | 15.17573 | 36678 ft | 506 kts | 104° |
| 2026-02-19 12:50 | 45.11414 | 15.25760 | 36672 ft | 506 kts | 104° |
| 2026-02-19 12:51 | 45.10355 | 15.35613 | 36662 ft | 506 kts | 104° |
| 2026-02-19 12:51 | 45.09287 | 15.45460 | 36667 ft | 506 kts | 104° |
| 2026-02-19 12:52 | 45.08211 | 15.55303 | 36668 ft | 505 kts | 104° |
| 2026-02-19 12:52 | 45.06583 | 15.70042 | 36681 ft | 505 kts | 104° |
| 2026-02-19 12:53 | 45.05489 | 15.79848 | 36681 ft | 505 kts | 104° |
| 2026-02-19 12:53 | 45.04386 | 15.89655 | 36677 ft | 505 kts | 104° |
| 2026-02-19 12:54 | 45.03276 | 15.99454 | 36691 ft | 505 kts | 105° |
| 2026-02-19 12:54 | 45.02156 | 16.09249 | 36695 ft | 505 kts | 105° |
| 2026-02-19 12:55 | 45.01029 | 16.19039 | 36724 ft | 506 kts | 104° |
| 2026-02-19 12:55 | 44.99892 | 16.28862 | 36693 ft | 507 kts | 104° |
| 2026-02-19 12:56 | 44.98030 | 16.43569 | 36719 ft | 507 kts | 106° |
| 2026-02-19 12:57 | 44.96713 | 16.53357 | 36722 ft | 508 kts | 106° |
| 2026-02-19 12:57 | 44.95396 | 16.63169 | 36719 ft | 509 kts | 106° |
| 2026-02-19 12:58 | 44.94080 | 16.73010 | 36737 ft | 510 kts | 106° |
| 2026-02-19 12:58 | 44.92768 | 16.82775 | 36740 ft | 511 kts | 106° |
| 2026-02-19 12:59 | 44.91434 | 16.92635 | 36750 ft | 512 kts | 106° |
| 2026-02-19 12:59 | 44.90090 | 17.02498 | 36723 ft | 512 kts | 106° |
| 2026-02-19 13:00 | 44.88740 | 17.12339 | 36739 ft | 512 kts | 106° |
| 2026-02-19 13:00 | 44.86697 | 17.27101 | 36751 ft | 511 kts | 106° |
| 2026-02-19 13:01 | 44.85327 | 17.36918 | 36734 ft | 511 kts | 106° |
| 2026-02-19 13:01 | 44.83947 | 17.46737 | 36741 ft | 510 kts | 106° |
| 2026-02-19 13:02 | 44.82562 | 17.56539 | 36758 ft | 510 kts | 106° |
| 2026-02-19 13:02 | 44.81169 | 17.66322 | 36760 ft | 509 kts | 106° |
| 2026-02-19 13:03 | 44.79770 | 17.76090 | 36746 ft | 509 kts | 106° |
| 2026-02-19 13:03 | 44.78364 | 17.85842 | 36756 ft | 508 kts | 106° |
| 2026-02-19 13:04 | 44.76244 | 18.00435 | 36764 ft | 503 kts | 107° |
| 2026-02-19 13:04 | 44.75554 | 18.05186 | 36749 ft | 488 kts | 107° |
| 2026-02-19 13:05 | 44.74883 | 18.09795 | 36729 ft | 474 kts | 107° |
| 2026-02-19 13:05 | 44.74230 | 18.14265 | 36743 ft | 460 kts | 107° |
| 2026-02-19 13:05 | 44.73592 | 18.18607 | 36749 ft | 447 kts | 107° |
| 2026-02-19 13:05 | 44.72959 | 18.22871 | 36611 ft | 446 kts | 107° |
| 2026-02-19 13:06 | 44.72329 | 18.27081 | 36051 ft | 448 kts | 107° |
| 2026-02-19 13:06 | 44.71679 | 18.31402 | 35364 ft | 455 kts | 107° |
| 2026-02-19 13:06 | 44.71021 | 18.35775 | 34801 ft | 459 kts | 107° |
| 2026-02-19 13:06 | 44.70363 | 18.40163 | 34433 ft | 457 kts | 107° |
| 2026-02-19 13:07 | 44.69712 | 18.44521 | 34111 ft | 454 kts | 107° |
| 2026-02-19 13:07 | 44.69064 | 18.48847 | 33768 ft | 451 kts | 107° |
| 2026-02-19 13:07 | 44.68415 | 18.53155 | 33350 ft | 450 kts | 107° |
| 2026-02-19 13:07 | 44.67767 | 18.57444 | 33007 ft | 447 kts | 107° |
| 2026-02-19 13:08 | 44.67121 | 18.61706 | 32717 ft | 443 kts | 107° |
| 2026-02-19 13:08 | 44.65845 | 18.70100 | 32108 ft | 436 kts | 107° |
| 2026-02-19 13:08 | 44.65210 | 18.74251 | 31742 ft | 435 kts | 108° |
| 2026-02-19 13:09 | 44.64566 | 18.78436 | 31071 ft | 441 kts | 107° |
| 2026-02-19 13:09 | 44.63914 | 18.82662 | 30476 ft | 446 kts | 107° |
| 2026-02-19 13:09 | 44.63253 | 18.86946 | 29875 ft | 451 kts | 107° |
| 2026-02-19 13:09 | 44.62586 | 18.91264 | 29158 ft | 455 kts | 107° |
| 2026-02-19 13:10 | 44.61915 | 18.95609 | 28495 ft | 457 kts | 107° |
| 2026-02-19 13:10 | 44.61239 | 18.99979 | 27819 ft | 459 kts | 107° |
| 2026-02-19 13:10 | 44.60558 | 19.04361 | 27149 ft | 461 kts | 107° |
| 2026-02-19 13:10 | 44.59946 | 19.08792 | 26508 ft | 465 kts | 101° |
| 2026-02-19 13:11 | 44.59763 | 19.13344 | 25859 ft | 470 kts | 90° |
| 2026-02-19 13:11 | 44.60070 | 19.17922 | 25256 ft | 471 kts | 84° |
| 2026-02-19 13:11 | 44.60499 | 19.22468 | 24634 ft | 471 kts | 83° |
| 2026-02-19 13:11 | 44.60932 | 19.27026 | 24038 ft | 470 kts | 84° |
| 2026-02-19 13:12 | 44.61328 | 19.31573 | 23458 ft | 469 kts | 85° |
| 2026-02-19 13:12 | 44.62024 | 19.40650 | 22117 ft | 466 kts | 86° |
| 2026-02-19 13:12 | 44.62313 | 19.45164 | 21451 ft | 463 kts | 86° |
| 2026-02-19 13:13 | 44.62582 | 19.49597 | 20817 ft | 461 kts | 86° |
| 2026-02-19 13:13 | 44.62850 | 19.54055 | 20178 ft | 454 kts | 86° |
| 2026-02-19 13:13 | 44.63116 | 19.58417 | 19554 ft | 443 kts | 86° |
| 2026-02-19 13:13 | 44.63377 | 19.62663 | 18927 ft | 432 kts | 86° |
| 2026-02-19 13:14 | 44.63634 | 19.66820 | 18326 ft | 421 kts | 86° |
| 2026-02-19 13:14 | 44.63884 | 19.70862 | 17685 ft | 412 kts | 86° |
| 2026-02-19 13:14 | 44.64127 | 19.74822 | 17026 ft | 403 kts | 86° |
| 2026-02-19 13:14 | 44.64365 | 19.78704 | 16368 ft | 395 kts | 86° |
| 2026-02-19 13:15 | 44.64596 | 19.82512 | 15728 ft | 388 kts | 86° |
| 2026-02-19 13:15 | 44.64822 | 19.86258 | 15108 ft | 381 kts | 86° |
| 2026-02-19 13:15 | 44.65042 | 19.89923 | 14618 ft | 372 kts | 86° |
| 2026-02-19 13:15 | 44.65256 | 19.93497 | 14115 ft | 363 kts | 87° |
| 2026-02-19 13:16 | 44.65464 | 19.96994 | 13651 ft | 356 kts | 87° |
| 2026-02-19 13:16 | 44.65866 | 20.03785 | 12573 ft | 343 kts | 87° |
| 2026-02-19 13:16 | 44.66059 | 20.07099 | 12050 ft | 338 kts | 86° |
| 2026-02-19 13:17 | 44.66343 | 20.10346 | 11519 ft | 334 kts | 75° |
| 2026-02-19 13:17 | 44.67381 | 20.13209 | 11007 ft | 328 kts | 48° |
| 2026-02-19 13:17 | 44.69101 | 20.15218 | 10521 ft | 318 kts | 25° |
| 2026-02-19 13:17 | 44.71136 | 20.16270 | 10040 ft | 308 kts | 6° |
| 2026-02-19 13:18 | 44.73246 | 20.16421 | 9548 ft | 300 kts | 354° |
| 2026-02-19 13:18 | 44.75287 | 20.16130 | 8988 ft | 291 kts | 338° |
| 2026-02-19 13:18 | 44.76978 | 20.14751 | 8481 ft | 277 kts | 313° |
| 2026-02-19 13:18 | 44.78209 | 20.12727 | 7970 ft | 269 kts | 299° |
| 2026-02-19 13:19 | 44.79185 | 20.10508 | 7475 ft | 265 kts | 297° |
| 2026-02-19 13:19 | 44.80128 | 20.08286 | 6969 ft | 263 kts | 297° |
| 2026-02-19 13:19 | 44.81072 | 20.06090 | 6479 ft | 262 kts | 298° |
| 2026-02-19 13:19 | 44.82019 | 20.03913 | 5975 ft | 260 kts | 298° |
| 2026-02-19 13:20 | 44.82964 | 20.01745 | 5455 ft | 258 kts | 297° |
| 2026-02-19 13:20 | 44.84790 | 19.97592 | 4986 ft | 241 kts | 297° |
| 2026-02-19 13:20 | 44.85659 | 19.95610 | 4968 ft | 237 kts | 296° |
| 2026-02-19 13:21 | 44.86533 | 19.93611 | 4978 ft | 239 kts | 296° |
| 2026-02-19 13:21 | 44.87386 | 19.91670 | 4975 ft | 225 kts | 296° |
| 2026-02-19 13:21 | 44.88176 | 19.89873 | 4948 ft | 207 kts | 296° |
| 2026-02-19 13:21 | 44.88903 | 19.88219 | 4933 ft | 191 kts | 296° |
| 2026-02-19 13:22 | 44.89591 | 19.86649 | 4944 ft | 187 kts | 295° |
| 2026-02-19 13:22 | 44.90272 | 19.85089 | 4950 ft | 187 kts | 295° |
| 2026-02-19 13:22 | 44.90994 | 19.83422 | 4991 ft | 217 kts | 296° |
| 2026-02-19 13:22 | 44.91813 | 19.81530 | 4978 ft | 231 kts | 296° |
| 2026-02-19 13:23 | 44.92666 | 19.79578 | 4965 ft | 236 kts | 297° |
| 2026-02-19 13:23 | 44.93529 | 19.77608 | 4953 ft | 235 kts | 297° |
| 2026-02-19 13:23 | 44.94386 | 19.75648 | 4945 ft | 234 kts | 297° |
| 2026-02-19 13:23 | 44.95240 | 19.73692 | 4934 ft | 234 kts | 296° |
| 2026-02-19 13:24 | 44.96101 | 19.71754 | 4933 ft | 234 kts | 301° |
| 2026-02-19 13:24 | 44.99098 | 19.70010 | 4933 ft | 258 kts | 6° |
| 2026-02-19 13:25 | 45.02366 | 19.72289 | 4955 ft | 267 kts | 30° |
| 2026-02-19 13:25 | 45.03833 | 19.73909 | 4922 ft | 271 kts | 51° |
| 2026-02-19 13:25 | 45.04627 | 19.76284 | 4886 ft | 267 kts | 81° |
| 2026-02-19 13:25 | 45.04555 | 19.78841 | 4614 ft | 258 kts | 110° |
| 2026-02-19 13:26 | 45.03801 | 19.81076 | 4240 ft | 249 kts | 126° |
| 2026-02-19 13:26 | 45.02901 | 19.83116 | 3985 ft | 247 kts | 128° |
| 2026-02-19 13:26 | 45.01959 | 19.85218 | 3949 ft | 250 kts | 127° |
| 2026-02-19 13:26 | 45.01036 | 19.87285 | 3944 ft | 247 kts | 128° |
| 2026-02-19 13:27 | 45.00130 | 19.89321 | 3930 ft | 250 kts | 128° |
| 2026-02-19 13:27 | 44.99202 | 19.91419 | 3960 ft | 253 kts | 127° |
| 2026-02-19 13:27 | 44.98256 | 19.93563 | 3960 ft | 255 kts | 127° |
| 2026-02-19 13:27 | 44.97320 | 19.95685 | 3968 ft | 255 kts | 127° |
| 2026-02-19 13:28 | 44.96387 | 19.97801 | 3949 ft | 250 kts | 127° |
| 2026-02-19 13:28 | 44.94770 | 20.01730 | 3941 ft | 215 kts | 125° |
| 2026-02-19 13:28 | 44.94035 | 20.03494 | 3952 ft | 205 kts | 128° |
| 2026-02-19 13:29 | 44.93286 | 20.05201 | 3954 ft | 204 kts | 128° |
| 2026-02-19 13:29 | 44.92537 | 20.06885 | 3940 ft | 202 kts | 128° |
| 2026-02-19 13:29 | 44.91793 | 20.08552 | 3748 ft | 199 kts | 129° |
| 2026-02-19 13:29 | 44.91078 | 20.10161 | 3495 ft | 189 kts | 129° |
| 2026-02-19 13:30 | 44.90395 | 20.11695 | 3250 ft | 180 kts | 129° |
| 2026-02-19 13:30 | 44.89741 | 20.13161 | 3062 ft | 173 kts | 129° |
| 2026-02-19 13:30 | 44.89102 | 20.14591 | 2800 ft | 172 kts | 128° |
| 2026-02-19 13:30 | 44.88468 | 20.16012 | 2557 ft | 170 kts | 128° |
| 2026-02-19 13:31 | 44.87857 | 20.17389 | 2323 ft | 159 kts | 128° |
| 2026-02-19 13:31 | 44.87297 | 20.18652 | 2106 ft | 145 kts | 128° |
| 2026-02-19 13:31 | 44.86773 | 20.19802 | 1906 ft | 137 kts | 132° |
| 2026-02-19 13:31 | 44.86220 | 20.20945 | 1670 ft | 143 kts | 127° |
| 2026-02-19 13:32 | 44.85745 | 20.22153 | 1520 ft | 141 kts | 125° |
| 2026-02-19 13:32 | 44.84716 | 20.24432 | 1137 ft | 138 kts | 128° |
| 2026-02-19 13:32 | 44.84195 | 20.25567 | 960 ft | 137 kts | 125° |
| 2026-02-19 13:33 | 44.83728 | 20.26711 | 742 ft | 131 kts | 122° |
| 2026-02-19 13:33 | 44.83274 | 20.27769 | 553 ft | 124 kts | 128° |
| 2026-02-19 13:33 | 44.82801 | 20.28770 | 398 ft | 126 kts | 127° |
| 2026-02-19 13:33 | 44.82320 | 20.29840 | 308 ft | 124 kts | 121° |
| 2026-02-19 13:34 | 44.81977 | 20.30617 | 307 ft | 63 kts | 122° |
| 2026-02-19 13:34 | 44.81842 | 20.30913 | 309 ft | 26 kts | 124° |
| 2026-02-19 13:34 | 44.81737 | 20.31153 | 304 ft | 26 kts | 123° |
| 2026-02-19 13:34 | 44.81621 | 20.31299 | 304 ft | 20 kts | 151° |
| 2026-02-19 13:35 | 44.81585 | 20.31326 | 304 ft | 0 kts | 152° |
| 2026-02-19 13:36 | 44.81524 | 20.31370 | 306 ft | 10 kts | 152° |
| 2026-02-19 13:36 | 44.81456 | 20.31424 | 306 ft | 8 kts | 151° |
| 2026-02-19 13:37 | 44.81436 | 20.31438 | 305 ft | 5 kts | 152° |
| 2026-02-19 13:37 | 44.81386 | 20.31468 | 305 ft | 10 kts | 175° |
| 2026-02-19 13:37 | 44.81326 | 20.31416 | 305 ft | 11 kts | 251° |
| 2026-02-19 13:37 | 44.81359 | 20.31301 | 305 ft | 16 kts | 304° |
| 2026-02-19 13:38 | 44.81427 | 20.31148 | 305 ft | 21 kts | 300° |
| 2026-02-19 13:38 | 44.81483 | 20.31015 | 307 ft | 12 kts | 301° |
| 2026-02-19 13:38 | 44.81534 | 20.30897 | 305 ft | 16 kts | 302° |
| 2026-02-19 13:38 | 44.81596 | 20.30758 | 307 ft | 16 kts | 302° |
| 2026-02-19 13:39 | 44.81653 | 20.30633 | 307 ft | 15 kts | 303° |
| 2026-02-19 13:39 | 44.81708 | 20.30512 | 307 ft | 15 kts | 301° |
| 2026-02-19 13:39 | 44.81758 | 20.30396 | 308 ft | 13 kts | 301° |
| 2026-02-19 13:39 | 44.81808 | 20.30282 | 306 ft | 15 kts | 302° |
| 2026-02-19 13:40 | 44.81870 | 20.30144 | 308 ft | 18 kts | 302° |
| 2026-02-19 13:40 | 44.81999 | 20.29858 | 306 ft | 9 kts | 303° |
| 2026-02-19 13:40 | 44.82004 | 20.29848 | 307 ft | 0 kts | 303° |
| 2026-02-19 13:41 | 44.82009 | 20.29837 | 306 ft | 4 kts | 300° |
| 2026-02-19 13:41 | 44.82031 | 20.29783 | 308 ft | 9 kts | 302° |
| 2026-02-19 13:41 | 44.82072 | 20.29697 | 306 ft | 11 kts | 301° |
| 2026-02-19 13:41 | 44.82047 | 20.29598 | 307 ft | 14 kts | 216° |
| 2026-02-19 13:42 | 44.81957 | 20.29521 | 306 ft | 15 kts | 211° |
| 2026-02-19 13:42 | 44.81872 | 20.29445 | 306 ft | 14 kts | 211° |
| 2026-02-19 13:42 | 44.81794 | 20.29376 | 304 ft | 13 kts | 212° |
| 2026-02-19 13:42 | 44.81726 | 20.29317 | 306 ft | 9 kts | 211° |
| 2026-02-19 13:43 | 44.81691 | 20.29253 | 306 ft | 9 kts | 266° |
| 2026-02-19 13:43 | 44.81688 | 20.29173 | 307 ft | 8 kts | 239° |
| 2026-02-19 13:43 | 44.81642 | 20.29123 | 306 ft | 8 kts | 210° |
| 2026-02-19 13:43 | 44.81593 | 20.29083 | 307 ft | 8 kts | 210° |
| 2026-02-19 13:44 | 44.81565 | 20.29026 | 306 ft | 8 kts | 284° |
| 2026-02-19 13:44 | 44.81585 | 20.28973 | 306 ft | 0 kts | 300° |
| 2026-02-19 13:46 | 44.81580 | 20.29184 | 306 ft | 0 kts | 211° |